Terminal Aerodrome Forecast
Issued by NWS Lake Charles, LA

Home | Current Version | Previous Version | Text Only | Print | Product List | Glossary On
Versions: 1 2 3 4 5 6 7 8 9 10 11 12 13 14
000
FTUS44 KLCH 290500
TAFLCH
TAF
KLCH 290533Z 2906/3006 16004KT 3SM BR SCT005
      TEMPO 2906/2909 1/2SM FG VV002
     FM290900 17004KT 1/2SM FG VV002
     FM291500 24008KT P6SM SCT250
     FM300200 34008KT P6SM BKN050=

USA.gov is the U.S. government's official web portal to all federal, state and local government web resources and services.